sensor_id;sensor_type;location;lat;lon;timestamp;P1;durP1;ratioP1;P2;durP2;ratioP2
15077;SDS011;7638;49.760;8.646;2022-09-21T00:01:22;2.77;;;1.57;;
15077;SDS011;7638;49.760;8.646;2022-09-21T00:03:56;2.80;;;1.30;;
15077;SDS011;7638;49.760;8.646;2022-09-21T00:06:23;3.90;;;1.30;;
15077;SDS011;7638;49.760;8.646;2022-09-21T00:08:49;1.83;;;1.47;;
15077;SDS011;7638;49.760;8.646;2022-09-21T00:11:17;2.57;;;1.40;;
15077;SDS011;7638;49.760;8.646;2022-09-21T00:13:43;4.37;;;1.53;;
15077;SDS011;7638;49.760;8.646;2022-09-21T00:16:11;3.17;;;1.20;;
15077;SDS011;7638;49.760;8.646;2022-09-21T00:18:37;1.97;;;1.27;;
15077;SDS011;7638;49.760;8.646;2022-09-21T00:21:07;4.40;;;1.50;;
15077;SDS011;7638;49.760;8.646;2022-09-21T00:23:34;2.77;;;1.17;;
15077;SDS011;7638;49.760;8.646;2022-09-21T00:26:04;1.73;;;1.37;;
15077;SDS011;7638;49.760;8.646;2022-09-21T00:28:30;3.60;;;1.40;;
15077;SDS011;7638;49.760;8.646;2022-09-21T00:30:59;2.17;;;1.20;;
15077;SDS011;7638;49.760;8.646;2022-09-21T00:33:26;4.77;;;1.83;;
15077;SDS011;7638;49.760;8.646;2022-09-21T00:35:52;6.00;;;1.97;;
15077;SDS011;7638;49.760;8.646;2022-09-21T00:38:18;1.60;;;1.30;;
15077;SDS011;7638;49.760;8.646;2022-09-21T00:40:44;1.60;;;1.40;;
15077;SDS011;7638;49.760;8.646;2022-09-21T00:43:13;2.47;;;1.40;;
15077;SDS011;7638;49.760;8.646;2022-09-21T00:45:40;7.63;;;1.50;;
15077;SDS011;7638;49.760;8.646;2022-09-21T00:48:06;2.40;;;1.20;;
15077;SDS011;7638;49.760;8.646;2022-09-21T00:50:32;1.97;;;1.20;;
15077;SDS011;7638;49.760;8.646;2022-09-21T00:53:00;2.67;;;1.43;;
15077;SDS011;7638;49.760;8.646;2022-09-21T00:55:33;4.60;;;1.40;;
15077;SDS011;7638;49.760;8.646;2022-09-21T00:58:04;1.63;;;1.20;;
15077;SDS011;7638;49.760;8.646;2022-09-21T01:00:33;4.60;;;1.47;;
15077;SDS011;7638;49.760;8.646;2022-09-21T01:02:59;3.63;;;1.30;;
15077;SDS011;7638;49.760;8.646;2022-09-21T01:05:28;2.23;;;1.20;;
15077;SDS011;7638;49.760;8.646;2022-09-21T01:07:55;1.80;;;1.70;;
15077;SDS011;7638;49.760;8.646;2022-09-21T01:10:22;2.23;;;1.60;;
15077;SDS011;7638;49.760;8.646;2022-09-21T01:13:02;4.87;;;1.80;;
15077;SDS011;7638;49.760;8.646;2022-09-21T01:20:39;2.00;;;1.10;;
15077;SDS011;7638;49.760;8.646;2022-09-21T01:28:28;3.27;;;1.30;;
15077;SDS011;7638;49.760;8.646;2022-09-21T01:30:59;1.47;;;1.33;;
15077;SDS011;7638;49.760;8.646;2022-09-21T01:33:31;1.63;;;1.10;;
15077;SDS011;7638;49.760;8.646;2022-09-21T01:35:59;4.77;;;1.67;;
15077;SDS011;7638;49.760;8.646;2022-09-21T01:38:27;3.60;;;1.47;;
15077;SDS011;7638;49.760;8.646;2022-09-21T01:40:57;6.17;;;1.57;;
15077;SDS011;7638;49.760;8.646;2022-09-21T01:43:26;3.00;;;1.57;;
15077;SDS011;7638;49.760;8.646;2022-09-21T01:45:53;2.63;;;1.40;;
15077;SDS011;7638;49.760;8.646;2022-09-21T01:48:21;5.73;;;1.40;;
15077;SDS011;7638;49.760;8.646;2022-09-21T01:50:53;1.90;;;1.10;;
15077;SDS011;7638;49.760;8.646;2022-09-21T01:58:44;2.73;;;1.80;;
15077;SDS011;7638;49.760;8.646;2022-09-21T02:01:14;3.27;;;1.63;;
15077;SDS011;7638;49.760;8.646;2022-09-21T02:03:49;1.70;;;1.57;;
15077;SDS011;7638;49.760;8.646;2022-09-21T02:06:17;2.80;;;1.50;;
15077;SDS011;7638;49.760;8.646;2022-09-21T02:08:43;2.53;;;1.70;;
15077;SDS011;7638;49.760;8.646;2022-09-21T02:11:10;4.27;;;1.43;;
15077;SDS011;7638;49.760;8.646;2022-09-21T02:13:38;3.20;;;1.40;;
15077;SDS011;7638;49.760;8.646;2022-09-21T02:18:37;2.47;;;1.80;;
15077;SDS011;7638;49.760;8.646;2022-09-21T02:21:12;4.20;;;1.40;;
15077;SDS011;7638;49.760;8.646;2022-09-21T02:23:52;3.67;;;1.90;;
15077;SDS011;7638;49.760;8.646;2022-09-21T02:26:28;2.77;;;1.97;;
15077;SDS011;7638;49.760;8.646;2022-09-21T02:29:43;7.87;;;1.53;;
15077;SDS011;7638;49.760;8.646;2022-09-21T02:34:22;3.07;;;1.90;;
15077;SDS011;7638;49.760;8.646;2022-09-21T02:36:57;6.97;;;2.20;;
15077;SDS011;7638;49.760;8.646;2022-09-21T02:44:33;4.20;;;1.90;;
15077;SDS011;7638;49.760;8.646;2022-09-21T02:49:32;3.17;;;1.80;;
15077;SDS011;7638;49.760;8.646;2022-09-21T02:52:01;2.10;;;1.70;;
15077;SDS011;7638;49.760;8.646;2022-09-21T02:54:29;3.10;;;1.73;;
15077;SDS011;7638;49.760;8.646;2022-09-21T02:56:57;5.13;;;2.03;;
15077;SDS011;7638;49.760;8.646;2022-09-21T02:59:24;4.83;;;1.87;;
15077;SDS011;7638;49.760;8.646;2022-09-21T03:01:51;3.23;;;1.53;;
15077;SDS011;7638;49.760;8.646;2022-09-21T03:04:17;3.93;;;1.93;;
15077;SDS011;7638;49.760;8.646;2022-09-21T03:06:44;4.73;;;2.37;;
15077;SDS011;7638;49.760;8.646;2022-09-21T03:09:10;5.40;;;2.20;;
15077;SDS011;7638;49.760;8.646;2022-09-21T03:11:36;4.23;;;2.17;;
15077;SDS011;7638;49.760;8.646;2022-09-21T03:14:02;2.93;;;2.37;;
15077;SDS011;7638;49.760;8.646;2022-09-21T03:16:32;3.70;;;2.10;;
15077;SDS011;7638;49.760;8.646;2022-09-21T03:18:58;5.70;;;2.70;;
15077;SDS011;7638;49.760;8.646;2022-09-21T03:21:25;6.23;;;1.93;;
15077;SDS011;7638;49.760;8.646;2022-09-21T03:23:51;5.40;;;2.57;;
15077;SDS011;7638;49.760;8.646;2022-09-21T03:26:17;6.27;;;2.30;;
15077;SDS011;7638;49.760;8.646;2022-09-21T03:28:46;2.97;;;1.97;;
15077;SDS011;7638;49.760;8.646;2022-09-21T03:31:15;4.43;;;2.07;;
15077;SDS011;7638;49.760;8.646;2022-09-21T03:33:41;4.20;;;2.20;;
15077;SDS011;7638;49.760;8.646;2022-09-21T03:36:07;4.53;;;2.30;;
15077;SDS011;7638;49.760;8.646;2022-09-21T03:38:34;6.67;;;2.50;;
15077;SDS011;7638;49.760;8.646;2022-09-21T03:41:00;4.60;;;2.57;;
15077;SDS011;7638;49.760;8.646;2022-09-21T03:43:26;4.63;;;2.10;;
15077;SDS011;7638;49.760;8.646;2022-09-21T03:45:52;7.70;;;2.43;;
15077;SDS011;7638;49.760;8.646;2022-09-21T03:48:18;5.17;;;2.47;;
15077;SDS011;7638;49.760;8.646;2022-09-21T03:50:46;3.60;;;2.23;;
15077;SDS011;7638;49.760;8.646;2022-09-21T03:53:12;3.77;;;2.20;;
15077;SDS011;7638;49.760;8.646;2022-09-21T03:55:38;4.97;;;2.07;;
15077;SDS011;7638;49.760;8.646;2022-09-21T03:58:05;3.57;;;2.20;;
15077;SDS011;7638;49.760;8.646;2022-09-21T04:00:31;3.23;;;2.93;;
15077;SDS011;7638;49.760;8.646;2022-09-21T04:02:58;9.10;;;2.40;;
15077;SDS011;7638;49.760;8.646;2022-09-21T04:05:24;4.33;;;2.20;;
15077;SDS011;7638;49.760;8.646;2022-09-21T04:07:51;5.07;;;2.30;;
15077;SDS011;7638;49.760;8.646;2022-09-21T04:10:19;3.70;;;2.10;;
15077;SDS011;7638;49.760;8.646;2022-09-21T04:12:46;2.57;;;1.67;;
15077;SDS011;7638;49.760;8.646;2022-09-21T04:15:13;2.40;;;2.10;;
15077;SDS011;7638;49.760;8.646;2022-09-21T04:17:39;2.47;;;1.80;;
15077;SDS011;7638;49.760;8.646;2022-09-21T04:20:05;4.40;;;2.03;;
15077;SDS011;7638;49.760;8.646;2022-09-21T04:22:32;3.80;;;2.40;;
15077;SDS011;7638;49.760;8.646;2022-09-21T04:24:59;1.87;;;1.67;;
15077;SDS011;7638;49.760;8.646;2022-09-21T04:27:25;4.97;;;1.70;;
15077;SDS011;7638;49.760;8.646;2022-09-21T04:29:51;4.93;;;1.83;;
15077;SDS011;7638;49.760;8.646;2022-09-21T04:32:20;4.50;;;2.03;;
15077;SDS011;7638;49.760;8.646;2022-09-21T04:34:46;4.03;;;2.27;;
15077;SDS011;7638;49.760;8.646;2022-09-21T04:37:12;4.43;;;2.70;;
15077;SDS011;7638;49.760;8.646;2022-09-21T04:39:38;6.40;;;3.10;;
15077;SDS011;7638;49.760;8.646;2022-09-21T04:42:04;2.77;;;2.40;;
15077;SDS011;7638;49.760;8.646;2022-09-21T04:44:31;6.00;;;3.00;;
15077;SDS011;7638;49.760;8.646;2022-09-21T04:46:57;4.13;;;3.13;;
15077;SDS011;7638;49.760;8.646;2022-09-21T04:49:23;9.30;;;2.63;;
15077;SDS011;7638;49.760;8.646;2022-09-21T04:51:49;7.83;;;3.20;;
15077;SDS011;7638;49.760;8.646;2022-09-21T04:54:15;6.50;;;2.60;;
15077;SDS011;7638;49.760;8.646;2022-09-21T04:56:41;4.33;;;2.70;;
15077;SDS011;7638;49.760;8.646;2022-09-21T04:59:07;3.23;;;2.50;;
15077;SDS011;7638;49.760;8.646;2022-09-21T05:01:36;5.00;;;2.50;;
15077;SDS011;7638;49.760;8.646;2022-09-21T05:04:03;6.30;;;2.60;;
15077;SDS011;7638;49.760;8.646;2022-09-21T05:06:30;3.87;;;2.87;;
15077;SDS011;7638;49.760;8.646;2022-09-21T05:08:56;3.40;;;2.60;;
15077;SDS011;7638;49.760;8.646;2022-09-21T05:11:41;3.53;;;2.60;;
15077;SDS011;7638;49.760;8.646;2022-09-21T05:14:07;5.00;;;2.90;;
15077;SDS011;7638;49.760;8.646;2022-09-21T05:16:34;8.33;;;2.80;;
15077;SDS011;7638;49.760;8.646;2022-09-21T05:19:00;4.63;;;2.50;;
15077;SDS011;7638;49.760;8.646;2022-09-21T05:21:26;11.07;;;2.60;;
15077;SDS011;7638;49.760;8.646;2022-09-21T05:23:52;3.43;;;2.37;;
15077;SDS011;7638;49.760;8.646;2022-09-21T05:26:18;4.40;;;2.60;;
15077;SDS011;7638;49.760;8.646;2022-09-21T05:28:44;3.53;;;2.50;;
15077;SDS011;7638;49.760;8.646;2022-09-21T05:34:05;4.30;;;2.57;;
15077;SDS011;7638;49.760;8.646;2022-09-21T05:38:58;4.03;;;2.10;;
15077;SDS011;7638;49.760;8.646;2022-09-21T05:41:24;6.77;;;2.60;;
15077;SDS011;7638;49.760;8.646;2022-09-21T05:43:50;4.30;;;2.47;;
15077;SDS011;7638;49.760;8.646;2022-09-21T05:46:25;6.37;;;2.80;;
15077;SDS011;7638;49.760;8.646;2022-09-21T05:54:40;9.00;;;3.63;;
15077;SDS011;7638;49.760;8.646;2022-09-21T05:59:50;4.93;;;2.93;;
15077;SDS011;7638;49.760;8.646;2022-09-21T06:04:55;5.80;;;3.03;;
15077;SDS011;7638;49.760;8.646;2022-09-21T06:07:22;3.97;;;3.10;;
15077;SDS011;7638;49.760;8.646;2022-09-21T06:09:48;3.33;;;2.53;;
15077;SDS011;7638;49.760;8.646;2022-09-21T06:12:14;4.63;;;2.67;;
15077;SDS011;7638;49.760;8.646;2022-09-21T06:14:40;4.37;;;2.80;;
15077;SDS011;7638;49.760;8.646;2022-09-21T06:17:06;6.57;;;3.30;;
15077;SDS011;7638;49.760;8.646;2022-09-21T06:19:32;4.17;;;3.10;;
15077;SDS011;7638;49.760;8.646;2022-09-21T06:21:58;7.10;;;3.27;;
15077;SDS011;7638;49.760;8.646;2022-09-21T06:24:24;4.30;;;2.80;;
15077;SDS011;7638;49.760;8.646;2022-09-21T06:26:50;3.90;;;3.33;;
15077;SDS011;7638;49.760;8.646;2022-09-21T06:29:16;6.97;;;3.40;;
15077;SDS011;7638;49.760;8.646;2022-09-21T06:31:48;5.43;;;3.50;;
15077;SDS011;7638;49.760;8.646;2022-09-21T06:34:14;5.70;;;3.50;;
15077;SDS011;7638;49.760;8.646;2022-09-21T06:36:40;11.53;;;3.73;;
15077;SDS011;7638;49.760;8.646;2022-09-21T06:39:06;6.73;;;4.93;;
15077;SDS011;7638;49.760;8.646;2022-09-21T06:41:32;5.00;;;3.90;;
15077;SDS011;7638;49.760;8.646;2022-09-21T06:43:58;6.40;;;4.57;;
15077;SDS011;7638;49.760;8.646;2022-09-21T06:46:24;6.17;;;4.07;;
15077;SDS011;7638;49.760;8.646;2022-09-21T06:48:50;6.80;;;4.00;;
15077;SDS011;7638;49.760;8.646;2022-09-21T06:51:16;6.53;;;4.10;;
15077;SDS011;7638;49.760;8.646;2022-09-21T06:53:44;5.33;;;3.37;;
15077;SDS011;7638;49.760;8.646;2022-09-21T06:56:10;5.30;;;3.90;;
15077;SDS011;7638;49.760;8.646;2022-09-21T06:58:36;3.97;;;3.57;;
15077;SDS011;7638;49.760;8.646;2022-09-21T07:01:06;6.87;;;3.77;;
15077;SDS011;7638;49.760;8.646;2022-09-21T07:03:33;4.30;;;3.40;;
15077;SDS011;7638;49.760;8.646;2022-09-21T07:05:59;3.97;;;3.17;;
15077;SDS011;7638;49.760;8.646;2022-09-21T07:08:25;3.23;;;2.50;;
15077;SDS011;7638;49.760;8.646;2022-09-21T07:10:51;5.03;;;3.03;;
15077;SDS011;7638;49.760;8.646;2022-09-21T07:13:17;3.53;;;3.23;;
15077;SDS011;7638;49.760;8.646;2022-09-21T07:15:43;4.70;;;3.30;;
15077;SDS011;7638;49.760;8.646;2022-09-21T07:18:12;3.83;;;2.93;;
15077;SDS011;7638;49.760;8.646;2022-09-21T07:20:39;5.27;;;3.63;;
15077;SDS011;7638;49.760;8.646;2022-09-21T07:23:09;4.50;;;3.07;;
15077;SDS011;7638;49.760;8.646;2022-09-21T07:25:35;4.40;;;2.83;;
15077;SDS011;7638;49.760;8.646;2022-09-21T07:28:01;5.77;;;2.67;;
15077;SDS011;7638;49.760;8.646;2022-09-21T07:30:27;4.93;;;3.50;;
15077;SDS011;7638;49.760;8.646;2022-09-21T07:32:53;4.40;;;3.23;;
15077;SDS011;7638;49.760;8.646;2022-09-21T07:35:19;5.03;;;3.03;;
15077;SDS011;7638;49.760;8.646;2022-09-21T07:37:45;3.50;;;3.03;;
15077;SDS011;7638;49.760;8.646;2022-09-21T07:40:11;4.63;;;3.00;;
15077;SDS011;7638;49.760;8.646;2022-09-21T07:42:40;5.53;;;3.70;;
15077;SDS011;7638;49.760;8.646;2022-09-21T07:45:09;6.30;;;3.37;;
15077;SDS011;7638;49.760;8.646;2022-09-21T07:47:35;4.60;;;3.90;;
15077;SDS011;7638;49.760;8.646;2022-09-21T07:50:01;5.77;;;3.60;;
15077;SDS011;7638;49.760;8.646;2022-09-21T07:52:27;5.67;;;3.20;;
15077;SDS011;7638;49.760;8.646;2022-09-21T07:54:53;6.37;;;3.23;;
15077;SDS011;7638;49.760;8.646;2022-09-21T07:57:19;6.17;;;3.20;;
15077;SDS011;7638;49.760;8.646;2022-09-21T08:00:04;4.50;;;3.27;;
15077;SDS011;7638;49.760;8.646;2022-09-21T08:02:30;6.20;;;3.47;;
15077;SDS011;7638;49.760;8.646;2022-09-21T08:04:56;5.93;;;3.83;;
15077;SDS011;7638;49.760;8.646;2022-09-21T08:07:22;4.20;;;3.20;;
15077;SDS011;7638;49.760;8.646;2022-09-21T08:09:48;5.50;;;3.00;;
15077;SDS011;7638;49.760;8.646;2022-09-21T08:12:16;4.93;;;3.03;;
15077;SDS011;7638;49.760;8.646;2022-09-21T08:14:43;6.57;;;3.63;;
15077;SDS011;7638;49.760;8.646;2022-09-21T08:17:09;8.80;;;3.87;;
15077;SDS011;7638;49.760;8.646;2022-09-21T08:19:35;8.37;;;4.50;;
15077;SDS011;7638;49.760;8.646;2022-09-21T08:22:01;8.03;;;4.17;;
15077;SDS011;7638;49.760;8.646;2022-09-21T08:24:27;5.83;;;3.80;;
15077;SDS011;7638;49.760;8.646;2022-09-21T08:26:55;6.97;;;3.63;;
15077;SDS011;7638;49.760;8.646;2022-09-21T08:29:22;13.00;;;5.80;;
15077;SDS011;7638;49.760;8.646;2022-09-21T08:31:48;13.77;;;5.77;;
15077;SDS011;7638;49.760;8.646;2022-09-21T08:34:14;6.37;;;3.53;;
15077;SDS011;7638;49.760;8.646;2022-09-21T08:36:40;44.47;;;13.20;;
15077;SDS011;7638;49.760;8.646;2022-09-21T08:39:07;14.40;;;7.30;;
15077;SDS011;7638;49.760;8.646;2022-09-21T08:49:38;6.47;;;3.27;;
15077;SDS011;7638;49.760;8.646;2022-09-21T08:52:07;4.53;;;3.30;;
15077;SDS011;7638;49.760;8.646;2022-09-21T08:57:12;7.23;;;2.93;;
15077;SDS011;7638;49.760;8.646;2022-09-21T08:59:40;4.33;;;2.73;;
15077;SDS011;7638;49.760;8.646;2022-09-21T09:02:29;3.97;;;2.53;;
15077;SDS011;7638;49.760;8.646;2022-09-21T09:05:03;2.93;;;1.97;;
15077;SDS011;7638;49.760;8.646;2022-09-21T09:20:13;1.60;;;1.17;;
15077;SDS011;7638;49.760;8.646;2022-09-21T09:25:22;1.80;;;0.80;;
15077;SDS011;7638;49.760;8.646;2022-09-21T09:27:52;2.40;;;0.80;;
15077;SDS011;7638;49.760;8.646;2022-09-21T09:30:20;2.70;;;1.20;;
15077;SDS011;7638;49.760;8.646;2022-09-21T09:35:39;1.90;;;0.83;;
15077;SDS011;7638;49.760;8.646;2022-09-21T09:38:10;2.67;;;0.70;;
15077;SDS011;7638;49.760;8.646;2022-09-21T09:43:14;4.93;;;1.13;;
15077;SDS011;7638;49.760;8.646;2022-09-21T09:50:41;0.80;;;0.80;;
15077;SDS011;7638;49.760;8.646;2022-09-21T09:53:11;1.43;;;0.67;;
15077;SDS011;7638;49.760;8.646;2022-09-21T09:55:39;2.20;;;0.73;;
15077;SDS011;7638;49.760;8.646;2022-09-21T09:58:20;1.07;;;0.80;;
15077;SDS011;7638;49.760;8.646;2022-09-21T10:00:49;0.70;;;0.70;;
15077;SDS011;7638;49.760;8.646;2022-09-21T10:03:17;1.73;;;0.70;;
15077;SDS011;7638;49.760;8.646;2022-09-21T10:05:44;2.33;;;0.80;;
15077;SDS011;7638;49.760;8.646;2022-09-21T10:10:55;2.43;;;0.70;;
15077;SDS011;7638;49.760;8.646;2022-09-21T10:15:48;1.13;;;0.70;;
15077;SDS011;7638;49.760;8.646;2022-09-21T10:20:54;0.57;;;0.57;;
15077;SDS011;7638;49.760;8.646;2022-09-21T10:23:21;1.23;;;0.80;;
15077;SDS011;7638;49.760;8.646;2022-09-21T10:26:00;1.90;;;0.70;;
15077;SDS011;7638;49.760;8.646;2022-09-21T10:28:27;1.10;;;0.67;;
15077;SDS011;7638;49.760;8.646;2022-09-21T10:31:10;1.67;;;0.77;;
15077;SDS011;7638;49.760;8.646;2022-09-21T10:33:50;2.30;;;1.00;;
15077;SDS011;7638;49.760;8.646;2022-09-21T10:36:27;0.80;;;0.80;;
15077;SDS011;7638;49.760;8.646;2022-09-21T10:38:54;0.57;;;0.57;;
15077;SDS011;7638;49.760;8.646;2022-09-21T10:41:20;0.83;;;0.60;;
15077;SDS011;7638;49.760;8.646;2022-09-21T10:43:47;1.20;;;0.57;;
15077;SDS011;7638;49.760;8.646;2022-09-21T10:46:15;0.90;;;0.87;;
15077;SDS011;7638;49.760;8.646;2022-09-21T10:48:43;0.60;;;0.60;;
15077;SDS011;7638;49.760;8.646;2022-09-21T10:51:16;2.37;;;0.80;;
15077;SDS011;7638;49.760;8.646;2022-09-21T10:53:46;1.83;;;0.70;;
15077;SDS011;7638;49.760;8.646;2022-09-21T10:56:16;2.00;;;1.03;;
15077;SDS011;7638;49.760;8.646;2022-09-21T11:01:30;1.57;;;1.00;;
15077;SDS011;7638;49.760;8.646;2022-09-21T11:03:59;3.03;;;0.80;;
15077;SDS011;7638;49.760;8.646;2022-09-21T11:06:36;1.20;;;0.80;;
15077;SDS011;7638;49.760;8.646;2022-09-21T11:09:13;4.83;;;1.00;;
15077;SDS011;7638;49.760;8.646;2022-09-21T11:14:23;1.30;;;1.07;;
15077;SDS011;7638;49.760;8.646;2022-09-21T11:27:40;1.20;;;1.10;;
15077;SDS011;7638;49.760;8.646;2022-09-21T11:30:12;3.90;;;1.43;;
15077;SDS011;7638;49.760;8.646;2022-09-21T11:37:47;1.20;;;1.10;;
15077;SDS011;7638;49.760;8.646;2022-09-21T11:53:43;2.33;;;1.10;;
15077;SDS011;7638;49.760;8.646;2022-09-21T11:59:02;1.03;;;0.93;;
15077;SDS011;7638;49.760;8.646;2022-09-21T12:04:40;1.70;;;0.80;;
15077;SDS011;7638;49.760;8.646;2022-09-21T12:07:19;3.10;;;1.00;;
15077;SDS011;7638;49.760;8.646;2022-09-21T12:14:58;3.23;;;1.20;;
15077;SDS011;7638;49.760;8.646;2022-09-21T12:17:29;2.77;;;0.90;;
15077;SDS011;7638;49.760;8.646;2022-09-21T12:20:05;1.83;;;1.20;;
15077;SDS011;7638;49.760;8.646;2022-09-21T12:22:37;1.43;;;0.90;;
15077;SDS011;7638;49.760;8.646;2022-09-21T12:27:40;1.00;;;0.80;;
15077;SDS011;7638;49.760;8.646;2022-09-21T12:30:11;1.20;;;1.00;;
15077;SDS011;7638;49.760;8.646;2022-09-21T12:32:41;2.27;;;1.00;;
15077;SDS011;7638;49.760;8.646;2022-09-21T12:35:15;4.10;;;1.03;;
15077;SDS011;7638;49.760;8.646;2022-09-21T12:37:46;2.00;;;0.97;;
15077;SDS011;7638;49.760;8.646;2022-09-21T12:42:42;1.73;;;1.10;;
15077;SDS011;7638;49.760;8.646;2022-09-21T12:45:13;2.70;;;0.80;;
15077;SDS011;7638;49.760;8.646;2022-09-21T12:52:42;2.63;;;1.10;;
15077;SDS011;7638;49.760;8.646;2022-09-21T12:55:24;1.73;;;0.60;;
15077;SDS011;7638;49.760;8.646;2022-09-21T13:00:27;1.47;;;0.80;;
15077;SDS011;7638;49.760;8.646;2022-09-21T13:03:03;2.37;;;1.00;;
15077;SDS011;7638;49.760;8.646;2022-09-21T13:08:15;1.70;;;0.87;;
15077;SDS011;7638;49.760;8.646;2022-09-21T13:15:49;0.90;;;0.60;;
15077;SDS011;7638;49.760;8.646;2022-09-21T13:21:18;2.30;;;0.70;;
15077;SDS011;7638;49.760;8.646;2022-09-21T13:23:56;0.60;;;0.60;;
15077;SDS011;7638;49.760;8.646;2022-09-21T13:26:30;0.60;;;0.60;;
15077;SDS011;7638;49.760;8.646;2022-09-21T13:31:39;1.37;;;0.40;;
15077;SDS011;7638;49.760;8.646;2022-09-21T13:34:20;1.77;;;0.83;;
15077;SDS011;7638;49.760;8.646;2022-09-21T13:39:32;1.30;;;0.70;;
15077;SDS011;7638;49.760;8.646;2022-09-21T13:41:58;1.67;;;0.73;;
15077;SDS011;7638;49.760;8.646;2022-09-21T13:44:44;1.63;;;0.70;;
15077;SDS011;7638;49.760;8.646;2022-09-21T13:47:10;1.13;;;0.83;;
15077;SDS011;7638;49.760;8.646;2022-09-21T13:49:46;1.73;;;0.50;;
15077;SDS011;7638;49.760;8.646;2022-09-21T13:57:17;1.20;;;0.73;;
15077;SDS011;7638;49.760;8.646;2022-09-21T13:59:45;0.83;;;0.60;;
15077;SDS011;7638;49.760;8.646;2022-09-21T14:02:21;0.40;;;0.40;;
15077;SDS011;7638;49.760;8.646;2022-09-21T14:04:48;2.40;;;1.03;;
15077;SDS011;7638;49.760;8.646;2022-09-21T14:07:15;1.30;;;0.60;;
15077;SDS011;7638;49.760;8.646;2022-09-21T14:09:52;0.70;;;0.70;;
15077;SDS011;7638;49.760;8.646;2022-09-21T14:12:20;2.37;;;0.60;;
15077;SDS011;7638;49.760;8.646;2022-09-21T14:18:06;2.70;;;0.90;;
15077;SDS011;7638;49.760;8.646;2022-09-21T14:20:33;1.07;;;0.73;;
15077;SDS011;7638;49.760;8.646;2022-09-21T14:28:12;0.60;;;0.53;;
15077;SDS011;7638;49.760;8.646;2022-09-21T14:30:46;0.50;;;0.50;;
15077;SDS011;7638;49.760;8.646;2022-09-21T14:35:58;3.13;;;0.70;;
15077;SDS011;7638;49.760;8.646;2022-09-21T14:38:28;0.50;;;0.50;;
15077;SDS011;7638;49.760;8.646;2022-09-21T14:41:02;2.83;;;0.70;;
15077;SDS011;7638;49.760;8.646;2022-09-21T14:43:30;2.00;;;0.83;;
15077;SDS011;7638;49.760;8.646;2022-09-21T15:01:53;1.63;;;0.67;;
15077;SDS011;7638;49.760;8.646;2022-09-21T15:04:25;1.00;;;0.63;;
15077;SDS011;7638;49.760;8.646;2022-09-21T15:10:22;2.80;;;1.10;;
15077;SDS011;7638;49.760;8.646;2022-09-21T15:18:19;0.90;;;0.60;;
15077;SDS011;7638;49.760;8.646;2022-09-21T15:20:56;0.70;;;0.60;;
15077;SDS011;7638;49.760;8.646;2022-09-21T15:23:28;1.00;;;0.80;;
15077;SDS011;7638;49.760;8.646;2022-09-21T15:26:00;1.03;;;0.87;;
15077;SDS011;7638;49.760;8.646;2022-09-21T15:31:22;2.07;;;0.70;;
15077;SDS011;7638;49.760;8.646;2022-09-21T15:33:50;1.63;;;0.60;;
15077;SDS011;7638;49.760;8.646;2022-09-21T15:36:23;0.40;;;0.40;;
15077;SDS011;7638;49.760;8.646;2022-09-21T15:38:49;0.53;;;0.53;;
15077;SDS011;7638;49.760;8.646;2022-09-21T15:44:22;0.70;;;0.53;;
15077;SDS011;7638;49.760;8.646;2022-09-21T15:46:53;0.60;;;0.50;;
15077;SDS011;7638;49.760;8.646;2022-09-21T15:49:24;1.23;;;0.70;;
15077;SDS011;7638;49.760;8.646;2022-09-21T15:52:36;0.70;;;0.70;;
15077;SDS011;7638;49.760;8.646;2022-09-21T15:57:04;1.07;;;0.70;;
15077;SDS011;7638;49.760;8.646;2022-09-21T15:59:33;3.13;;;0.50;;
15077;SDS011;7638;49.760;8.646;2022-09-21T16:01:59;0.60;;;0.50;;
15077;SDS011;7638;49.760;8.646;2022-09-21T16:04:26;0.60;;;0.60;;
15077;SDS011;7638;49.760;8.646;2022-09-21T16:07:00;0.97;;;0.50;;
15077;SDS011;7638;49.760;8.646;2022-09-21T16:09:41;0.50;;;0.50;;
15077;SDS011;7638;49.760;8.646;2022-09-21T16:12:27;0.53;;;0.50;;
15077;SDS011;7638;49.760;8.646;2022-09-21T16:14:59;0.60;;;0.60;;
15077;SDS011;7638;49.760;8.646;2022-09-21T16:17:26;2.27;;;0.70;;
15077;SDS011;7638;49.760;8.646;2022-09-21T16:22:24;3.10;;;0.73;;
15077;SDS011;7638;49.760;8.646;2022-09-21T16:24:52;0.57;;;0.57;;
15077;SDS011;7638;49.760;8.646;2022-09-21T16:27:19;1.60;;;0.60;;
15077;SDS011;7638;49.760;8.646;2022-09-21T16:29:47;1.23;;;0.60;;
15077;SDS011;7638;49.760;8.646;2022-09-21T16:34:43;1.40;;;0.83;;
15077;SDS011;7638;49.760;8.646;2022-09-21T16:39:51;0.60;;;0.60;;
15077;SDS011;7638;49.760;8.646;2022-09-21T16:42:18;0.87;;;0.70;;
15077;SDS011;7638;49.760;8.646;2022-09-21T16:44:45;1.47;;;0.60;;
15077;SDS011;7638;49.760;8.646;2022-09-21T16:47:21;0.80;;;0.80;;
15077;SDS011;7638;49.760;8.646;2022-09-21T16:49:49;0.90;;;0.90;;
15077;SDS011;7638;49.760;8.646;2022-09-21T16:52:19;1.30;;;0.63;;
15077;SDS011;7638;49.760;8.646;2022-09-21T16:54:45;1.13;;;0.80;;
15077;SDS011;7638;49.760;8.646;2022-09-21T16:57:13;3.33;;;0.90;;
15077;SDS011;7638;49.760;8.646;2022-09-21T16:59:40;0.70;;;0.70;;
15077;SDS011;7638;49.760;8.646;2022-09-21T17:02:06;2.10;;;0.80;;
15077;SDS011;7638;49.760;8.646;2022-09-21T17:04:34;5.50;;;1.10;;
15077;SDS011;7638;49.760;8.646;2022-09-21T17:07:00;2.90;;;1.47;;
15077;SDS011;7638;49.760;8.646;2022-09-21T17:09:34;2.50;;;1.00;;
15077;SDS011;7638;49.760;8.646;2022-09-21T17:12:02;2.60;;;2.00;;
15077;SDS011;7638;49.760;8.646;2022-09-21T17:14:30;2.47;;;1.53;;
15077;SDS011;7638;49.760;8.646;2022-09-21T17:17:01;2.60;;;1.00;;
15077;SDS011;7638;49.760;8.646;2022-09-21T17:19:32;0.70;;;0.67;;
15077;SDS011;7638;49.760;8.646;2022-09-21T17:21:59;4.37;;;0.93;;
15077;SDS011;7638;49.760;8.646;2022-09-21T17:24:26;1.00;;;0.90;;
15077;SDS011;7638;49.760;8.646;2022-09-21T17:26:52;0.63;;;0.63;;
15077;SDS011;7638;49.760;8.646;2022-09-21T17:29:23;1.23;;;1.13;;
15077;SDS011;7638;49.760;8.646;2022-09-21T17:31:55;1.83;;;0.90;;
15077;SDS011;7638;49.760;8.646;2022-09-21T17:34:22;0.67;;;0.67;;
15077;SDS011;7638;49.760;8.646;2022-09-21T17:36:49;0.97;;;0.90;;
15077;SDS011;7638;49.760;8.646;2022-09-21T17:39:15;1.10;;;1.00;;
15077;SDS011;7638;49.760;8.646;2022-09-21T17:41:44;1.90;;;0.90;;
15077;SDS011;7638;49.760;8.646;2022-09-21T17:44:16;1.00;;;0.73;;
15077;SDS011;7638;49.760;8.646;2022-09-21T17:49:29;1.40;;;0.80;;
15077;SDS011;7638;49.760;8.646;2022-09-21T17:51:55;3.17;;;0.97;;
15077;SDS011;7638;49.760;8.646;2022-09-21T17:54:40;2.33;;;0.90;;
15077;SDS011;7638;49.760;8.646;2022-09-21T17:57:10;2.77;;;0.90;;
15077;SDS011;7638;49.760;8.646;2022-09-21T17:59:39;0.90;;;0.90;;
15077;SDS011;7638;49.760;8.646;2022-09-21T18:02:39;1.10;;;0.87;;
15077;SDS011;7638;49.760;8.646;2022-09-21T18:04:59;1.13;;;0.73;;
15077;SDS011;7638;49.760;8.646;2022-09-21T18:07:27;4.20;;;0.90;;
15077;SDS011;7638;49.760;8.646;2022-09-21T18:09:53;1.27;;;0.83;;
15077;SDS011;7638;49.760;8.646;2022-09-21T18:16:00;2.40;;;0.50;;
15077;SDS011;7638;49.760;8.646;2022-09-21T18:23:40;3.80;;;1.10;;
15077;SDS011;7638;49.760;8.646;2022-09-21T18:26:10;2.00;;;1.03;;
15077;SDS011;7638;49.760;8.646;2022-09-21T18:28:46;2.00;;;0.90;;
15077;SDS011;7638;49.760;8.646;2022-09-21T18:39:31;1.27;;;0.90;;
15077;SDS011;7638;49.760;8.646;2022-09-21T18:44:38;0.60;;;0.60;;
15077;SDS011;7638;49.760;8.646;2022-09-21T18:50:01;3.07;;;1.03;;
15077;SDS011;7638;49.760;8.646;2022-09-21T18:55:42;2.93;;;1.83;;
15077;SDS011;7638;49.760;8.646;2022-09-21T18:58:02;1.53;;;1.10;;
15077;SDS011;7638;49.760;8.646;2022-09-21T19:00:29;0.80;;;0.70;;
15077;SDS011;7638;49.760;8.646;2022-09-21T19:02:56;3.73;;;1.10;;
15077;SDS011;7638;49.760;8.646;2022-09-21T19:05:22;1.17;;;1.03;;
15077;SDS011;7638;49.760;8.646;2022-09-21T19:11:05;2.90;;;1.33;;
15077;SDS011;7638;49.760;8.646;2022-09-21T19:13:24;1.80;;;1.57;;
15077;SDS011;7638;49.760;8.646;2022-09-21T19:26:00;1.13;;;1.03;;
15077;SDS011;7638;49.760;8.646;2022-09-21T19:31:15;1.10;;;0.77;;
15077;SDS011;7638;49.760;8.646;2022-09-21T19:33:43;2.00;;;1.00;;
15077;SDS011;7638;49.760;8.646;2022-09-21T19:36:10;2.23;;;2.00;;